sensor_id;sensor_type;location;lat;lon;timestamp;temperature;humidity
11055;DHT22;5580;50.106;8.702;2023-02-11T00:00:11;3.80;99.90
11055;DHT22;5580;50.106;8.702;2023-02-11T00:02:36;3.80;99.90
11055;DHT22;5580;50.106;8.702;2023-02-11T00:05:02;3.80;99.90
11055;DHT22;5580;50.106;8.702;2023-02-11T00:07:29;3.80;99.90
11055;DHT22;5580;50.106;8.702;2023-02-11T00:09:54;3.80;99.90
11055;DHT22;5580;50.106;8.702;2023-02-11T00:12:20;3.80;99.90
11055;DHT22;5580;50.106;8.702;2023-02-11T00:14:46;3.80;99.90
11055;DHT22;5580;50.106;8.702;2023-02-11T00:17:12;3.80;99.90
11055;DHT22;5580;50.106;8.702;2023-02-11T00:19:38;3.80;99.90
11055;DHT22;5580;50.106;8.702;2023-02-11T00:22:04;3.90;99.90
11055;DHT22;5580;50.106;8.702;2023-02-11T00:24:30;3.80;99.90
11055;DHT22;5580;50.106;8.702;2023-02-11T00:26:55;3.90;99.90
11055;DHT22;5580;50.106;8.702;2023-02-11T00:29:21;3.90;99.90
11055;DHT22;5580;50.106;8.702;2023-02-11T00:31:47;3.90;99.90
11055;DHT22;5580;50.106;8.702;2023-02-11T00:34:12;3.90;99.90
11055;DHT22;5580;50.106;8.702;2023-02-11T00:36:38;3.90;99.90
11055;DHT22;5580;50.106;8.702;2023-02-11T00:39:04;3.90;99.90
11055;DHT22;5580;50.106;8.702;2023-02-11T00:41:30;4.00;99.90
11055;DHT22;5580;50.106;8.702;2023-02-11T00:43:55;4.00;99.90
11055;DHT22;5580;50.106;8.702;2023-02-11T00:46:21;4.10;99.90
11055;DHT22;5580;50.106;8.702;2023-02-11T00:48:48;4.00;99.90
11055;DHT22;5580;50.106;8.702;2023-02-11T00:51:13;4.10;99.90
11055;DHT22;5580;50.106;8.702;2023-02-11T00:53:39;4.10;99.90
11055;DHT22;5580;50.106;8.702;2023-02-11T00:56:06;4.10;99.90
11055;DHT22;5580;50.106;8.702;2023-02-11T00:58:31;4.10;99.90
11055;DHT22;5580;50.106;8.702;2023-02-11T01:00:57;4.10;99.90
11055;DHT22;5580;50.106;8.702;2023-02-11T01:03:23;4.20;99.90
11055;DHT22;5580;50.106;8.702;2023-02-11T01:05:49;4.20;99.90
11055;DHT22;5580;50.106;8.702;2023-02-11T01:08:14;4.20;99.90
11055;DHT22;5580;50.106;8.702;2023-02-11T01:10:40;4.20;99.90
11055;DHT22;5580;50.106;8.702;2023-02-11T01:13:06;4.20;99.90
11055;DHT22;5580;50.106;8.702;2023-02-11T01:15:31;4.20;99.90
11055;DHT22;5580;50.106;8.702;2023-02-11T01:17:57;4.20;99.90
11055;DHT22;5580;50.106;8.702;2023-02-11T01:20:25;4.20;99.90
11055;DHT22;5580;50.106;8.702;2023-02-11T01:22:50;4.20;99.90
11055;DHT22;5580;50.106;8.702;2023-02-11T01:25:16;4.20;99.90
11055;DHT22;5580;50.106;8.702;2023-02-11T01:27:42;4.20;99.90
11055;DHT22;5580;50.106;8.702;2023-02-11T01:30:10;4.20;99.90
11055;DHT22;5580;50.106;8.702;2023-02-11T01:32:36;4.20;99.90
11055;DHT22;5580;50.106;8.702;2023-02-11T01:35:02;4.20;99.90
11055;DHT22;5580;50.106;8.702;2023-02-11T01:37:28;4.20;99.90
11055;DHT22;5580;50.106;8.702;2023-02-11T01:39:53;4.20;99.90
11055;DHT22;5580;50.106;8.702;2023-02-11T01:42:22;4.30;99.90
11055;DHT22;5580;50.106;8.702;2023-02-11T01:44:50;4.30;99.90
11055;DHT22;5580;50.106;8.702;2023-02-11T01:47:16;4.30;99.90
11055;DHT22;5580;50.106;8.702;2023-02-11T01:50:17;4.20;99.90
11055;DHT22;5580;50.106;8.702;2023-02-11T01:52:38;4.20;99.90
11055;DHT22;5580;50.106;8.702;2023-02-11T01:55:08;4.20;99.90
11055;DHT22;5580;50.106;8.702;2023-02-11T01:57:55;4.20;99.90
11055;DHT22;5580;50.106;8.702;2023-02-11T02:00:35;4.20;99.90
11055;DHT22;5580;50.106;8.702;2023-02-11T02:03:14;4.20;99.90
11055;DHT22;5580;50.106;8.702;2023-02-11T02:08:41;4.20;99.90
11055;DHT22;5580;50.106;8.702;2023-02-11T02:11:08;4.20;99.90
11055;DHT22;5580;50.106;8.702;2023-02-11T02:13:34;4.10;99.90
11055;DHT22;5580;50.106;8.702;2023-02-11T02:16:03;4.10;99.90
11055;DHT22;5580;50.106;8.702;2023-02-11T02:36:30;3.90;99.90
11055;DHT22;5580;50.106;8.702;2023-02-11T02:39:05;3.90;99.90
11055;DHT22;5580;50.106;8.702;2023-02-11T02:41:33;3.80;99.90
11055;DHT22;5580;50.106;8.702;2023-02-11T02:43:59;3.80;99.90
11055;DHT22;5580;50.106;8.702;2023-02-11T02:46:28;3.90;99.90
11055;DHT22;5580;50.106;8.702;2023-02-11T02:48:55;3.90;99.90
11055;DHT22;5580;50.106;8.702;2023-02-11T02:52:03;3.90;99.90
11055;DHT22;5580;50.106;8.702;2023-02-11T02:57:31;3.90;99.90
11055;DHT22;5580;50.106;8.702;2023-02-11T03:02:51;3.90;99.90
11055;DHT22;5580;50.106;8.702;2023-02-11T03:05:29;3.90;99.90
11055;DHT22;5580;50.106;8.702;2023-02-11T03:08:04;3.90;99.90
11055;DHT22;5580;50.106;8.702;2023-02-11T03:10:39;4.00;99.90
11055;DHT22;5580;50.106;8.702;2023-02-11T03:13:06;3.90;99.90
11055;DHT22;5580;50.106;8.702;2023-02-11T03:15:37;3.90;99.90
11055;DHT22;5580;50.106;8.702;2023-02-11T03:18:08;3.90;99.90
11055;DHT22;5580;50.106;8.702;2023-02-11T03:20:38;4.00;99.90
11055;DHT22;5580;50.106;8.702;2023-02-11T03:23:15;3.90;99.90
11055;DHT22;5580;50.106;8.702;2023-02-11T03:25:49;3.90;99.90
11055;DHT22;5580;50.106;8.702;2023-02-11T03:28:48;3.90;99.90
11055;DHT22;5580;50.106;8.702;2023-02-11T03:36:56;3.80;99.90
11055;DHT22;5580;50.106;8.702;2023-02-11T03:42:12;3.80;99.90
11055;DHT22;5580;50.106;8.702;2023-02-11T03:44:50;3.70;99.90
11055;DHT22;5580;50.106;8.702;2023-02-11T03:47:20;3.80;99.90
11055;DHT22;5580;50.106;8.702;2023-02-11T03:49:48;3.70;99.90
11055;DHT22;5580;50.106;8.702;2023-02-11T03:52:17;3.70;99.90
11055;DHT22;5580;50.106;8.702;2023-02-11T03:54:45;3.70;99.90
11055;DHT22;5580;50.106;8.702;2023-02-11T03:57:14;3.70;99.90
11055;DHT22;5580;50.106;8.702;2023-02-11T03:59:51;3.70;99.90
11055;DHT22;5580;50.106;8.702;2023-02-11T04:02:18;3.70;99.90
11055;DHT22;5580;50.106;8.702;2023-02-11T04:04:44;3.70;99.90
11055;DHT22;5580;50.106;8.702;2023-02-11T04:07:11;3.70;99.90
11055;DHT22;5580;50.106;8.702;2023-02-11T04:09:37;3.70;99.90
11055;DHT22;5580;50.106;8.702;2023-02-11T04:12:03;3.70;99.90
11055;DHT22;5580;50.106;8.702;2023-02-11T04:14:28;3.80;99.90
11055;DHT22;5580;50.106;8.702;2023-02-11T04:16:54;3.80;99.90
11055;DHT22;5580;50.106;8.702;2023-02-11T04:19:19;3.80;99.90
11055;DHT22;5580;50.106;8.702;2023-02-11T04:21:46;3.80;99.90
11055;DHT22;5580;50.106;8.702;2023-02-11T04:24:11;3.90;99.90
11055;DHT22;5580;50.106;8.702;2023-02-11T04:26:37;3.90;99.90
11055;DHT22;5580;50.106;8.702;2023-02-11T04:29:02;3.90;99.90
11055;DHT22;5580;50.106;8.702;2023-02-11T04:31:28;3.90;99.90
11055;DHT22;5580;50.106;8.702;2023-02-11T04:33:53;4.00;99.90
11055;DHT22;5580;50.106;8.702;2023-02-11T04:36:19;4.00;99.90
11055;DHT22;5580;50.106;8.702;2023-02-11T04:38:44;4.00;99.90
11055;DHT22;5580;50.106;8.702;2023-02-11T04:41:13;4.00;99.90
11055;DHT22;5580;50.106;8.702;2023-02-11T04:43:38;4.00;99.90
11055;DHT22;5580;50.106;8.702;2023-02-11T04:46:04;4.10;99.90
11055;DHT22;5580;50.106;8.702;2023-02-11T04:48:29;4.00;99.90
11055;DHT22;5580;50.106;8.702;2023-02-11T04:50:55;4.00;99.90
11055;DHT22;5580;50.106;8.702;2023-02-11T04:53:20;4.00;99.90
11055;DHT22;5580;50.106;8.702;2023-02-11T04:55:49;4.00;99.90
11055;DHT22;5580;50.106;8.702;2023-02-11T04:58:16;4.00;99.90
11055;DHT22;5580;50.106;8.702;2023-02-11T05:00:41;4.10;99.90
11055;DHT22;5580;50.106;8.702;2023-02-11T05:03:07;4.10;99.90
11055;DHT22;5580;50.106;8.702;2023-02-11T05:05:32;4.10;99.90
11055;DHT22;5580;50.106;8.702;2023-02-11T05:07:58;4.10;99.90
11055;DHT22;5580;50.106;8.702;2023-02-11T05:10:23;4.00;99.90
11055;DHT22;5580;50.106;8.702;2023-02-11T05:12:49;4.00;99.90
11055;DHT22;5580;50.106;8.702;2023-02-11T05:15:15;4.10;99.90
11055;DHT22;5580;50.106;8.702;2023-02-11T05:17:40;4.10;99.90
11055;DHT22;5580;50.106;8.702;2023-02-11T05:20:06;4.10;99.90
11055;DHT22;5580;50.106;8.702;2023-02-11T05:22:32;4.10;99.90
11055;DHT22;5580;50.106;8.702;2023-02-11T05:24:57;4.10;99.90
11055;DHT22;5580;50.106;8.702;2023-02-11T05:27:23;4.10;99.90
11055;DHT22;5580;50.106;8.702;2023-02-11T05:29:48;4.20;99.90
11055;DHT22;5580;50.106;8.702;2023-02-11T05:32:14;4.20;99.90
11055;DHT22;5580;50.106;8.702;2023-02-11T05:34:39;4.10;99.90
11055;DHT22;5580;50.106;8.702;2023-02-11T05:37:05;4.20;99.90
11055;DHT22;5580;50.106;8.702;2023-02-11T05:39:30;4.20;99.90
11055;DHT22;5580;50.106;8.702;2023-02-11T05:41:56;4.20;99.90
11055;DHT22;5580;50.106;8.702;2023-02-11T05:44:21;4.20;99.90
11055;DHT22;5580;50.106;8.702;2023-02-11T05:46:47;4.20;99.90
11055;DHT22;5580;50.106;8.702;2023-02-11T05:49:14;4.20;99.90
11055;DHT22;5580;50.106;8.702;2023-02-11T05:51:40;4.20;99.90
11055;DHT22;5580;50.106;8.702;2023-02-11T05:54:05;4.10;99.90
11055;DHT22;5580;50.106;8.702;2023-02-11T05:56:31;4.10;99.90
11055;DHT22;5580;50.106;8.702;2023-02-11T05:58:58;4.20;99.90
11055;DHT22;5580;50.106;8.702;2023-02-11T06:01:24;4.20;99.90
11055;DHT22;5580;50.106;8.702;2023-02-11T06:03:50;4.10;99.90
11055;DHT22;5580;50.106;8.702;2023-02-11T06:06:16;4.10;99.90
11055;DHT22;5580;50.106;8.702;2023-02-11T06:08:42;4.10;99.90
11055;DHT22;5580;50.106;8.702;2023-02-11T06:11:08;4.10;99.90
11055;DHT22;5580;50.106;8.702;2023-02-11T06:13:34;4.10;99.90
11055;DHT22;5580;50.106;8.702;2023-02-11T06:16:01;4.10;99.90
11055;DHT22;5580;50.106;8.702;2023-02-11T06:18:27;4.10;99.90
11055;DHT22;5580;50.106;8.702;2023-02-11T06:20:54;4.00;99.90
11055;DHT22;5580;50.106;8.702;2023-02-11T06:23:20;4.10;99.90
11055;DHT22;5580;50.106;8.702;2023-02-11T06:25:48;4.00;99.90
11055;DHT22;5580;50.106;8.702;2023-02-11T06:28:14;4.00;99.90
11055;DHT22;5580;50.106;8.702;2023-02-11T06:30:39;4.00;99.90
11055;DHT22;5580;50.106;8.702;2023-02-11T06:33:05;3.90;99.90
11055;DHT22;5580;50.106;8.702;2023-02-11T06:35:30;3.90;99.90
11055;DHT22;5580;50.106;8.702;2023-02-11T06:37:58;3.90;99.90
11055;DHT22;5580;50.106;8.702;2023-02-11T06:40:23;3.90;99.90
11055;DHT22;5580;50.106;8.702;2023-02-11T06:42:49;3.90;99.90
11055;DHT22;5580;50.106;8.702;2023-02-11T06:45:14;3.80;99.90
11055;DHT22;5580;50.106;8.702;2023-02-11T06:47:40;3.80;99.90
11055;DHT22;5580;50.106;8.702;2023-02-11T06:50:09;3.80;99.90
11055;DHT22;5580;50.106;8.702;2023-02-11T06:52:35;3.80;99.90
11055;DHT22;5580;50.106;8.702;2023-02-11T06:55:00;3.80;99.90
11055;DHT22;5580;50.106;8.702;2023-02-11T06:57:27;3.80;99.90
11055;DHT22;5580;50.106;8.702;2023-02-11T06:59:52;3.80;99.90
11055;DHT22;5580;50.106;8.702;2023-02-11T07:02:18;3.80;99.90
11055;DHT22;5580;50.106;8.702;2023-02-11T07:04:43;3.80;99.90
11055;DHT22;5580;50.106;8.702;2023-02-11T07:07:09;3.80;99.90
11055;DHT22;5580;50.106;8.702;2023-02-11T07:09:34;3.80;99.90
11055;DHT22;5580;50.106;8.702;2023-02-11T07:12:00;3.80;99.90
11055;DHT22;5580;50.106;8.702;2023-02-11T07:14:25;3.80;99.90
11055;DHT22;5580;50.106;8.702;2023-02-11T07:16:51;3.80;99.90
11055;DHT22;5580;50.106;8.702;2023-02-11T07:19:17;3.90;99.90
11055;DHT22;5580;50.106;8.702;2023-02-11T07:21:42;3.90;99.90
11055;DHT22;5580;50.106;8.702;2023-02-11T07:24:08;4.00;99.90
11055;DHT22;5580;50.106;8.702;2023-02-11T07:26:35;4.00;99.90
11055;DHT22;5580;50.106;8.702;2023-02-11T07:29:00;4.00;99.90
11055;DHT22;5580;50.106;8.702;2023-02-11T07:31:28;4.10;99.90
11055;DHT22;5580;50.106;8.702;2023-02-11T07:33:56;4.10;99.90
11055;DHT22;5580;50.106;8.702;2023-02-11T07:36:22;4.10;99.90
11055;DHT22;5580;50.106;8.702;2023-02-11T07:38:48;4.10;99.90
11055;DHT22;5580;50.106;8.702;2023-02-11T07:41:16;4.10;99.90
11055;DHT22;5580;50.106;8.702;2023-02-11T07:43:43;4.10;99.90
11055;DHT22;5580;50.106;8.702;2023-02-11T07:46:11;4.10;99.90
11055;DHT22;5580;50.106;8.702;2023-02-11T07:48:37;4.20;99.90
11055;DHT22;5580;50.106;8.702;2023-02-11T07:51:31;4.20;99.90
11055;DHT22;5580;50.106;8.702;2023-02-11T07:53:57;4.30;99.90
11055;DHT22;5580;50.106;8.702;2023-02-11T07:56:23;4.40;99.90
11055;DHT22;5580;50.106;8.702;2023-02-11T07:58:50;4.40;99.90
11055;DHT22;5580;50.106;8.702;2023-02-11T08:01:18;4.50;99.90
11055;DHT22;5580;50.106;8.702;2023-02-11T08:03:44;4.50;99.90
11055;DHT22;5580;50.106;8.702;2023-02-11T08:06:12;4.50;99.90
11055;DHT22;5580;50.106;8.702;2023-02-11T08:08:38;4.50;99.90
11055;DHT22;5580;50.106;8.702;2023-02-11T08:11:13;4.60;99.90
11055;DHT22;5580;50.106;8.702;2023-02-11T08:13:38;4.70;99.90
11055;DHT22;5580;50.106;8.702;2023-02-11T08:16:07;4.60;99.90
11055;DHT22;5580;50.106;8.702;2023-02-11T08:18:35;4.70;99.90
11055;DHT22;5580;50.106;8.702;2023-02-11T08:21:08;4.70;99.90
11055;DHT22;5580;50.106;8.702;2023-02-11T08:23:38;4.70;99.90
11055;DHT22;5580;50.106;8.702;2023-02-11T08:26:05;4.70;99.90
11055;DHT22;5580;50.106;8.702;2023-02-11T08:28:35;4.70;99.90
11055;DHT22;5580;50.106;8.702;2023-02-11T08:31:08;4.70;99.90
11055;DHT22;5580;50.106;8.702;2023-02-11T08:33:34;4.70;99.90
11055;DHT22;5580;50.106;8.702;2023-02-11T08:36:00;4.80;99.90
11055;DHT22;5580;50.106;8.702;2023-02-11T08:38:26;4.70;99.90
11055;DHT22;5580;50.106;8.702;2023-02-11T08:40:52;4.80;99.90
11055;DHT22;5580;50.106;8.702;2023-02-11T08:43:17;4.80;99.90
11055;DHT22;5580;50.106;8.702;2023-02-11T08:45:43;4.80;99.90
11055;DHT22;5580;50.106;8.702;2023-02-11T08:48:09;4.90;99.90
11055;DHT22;5580;50.106;8.702;2023-02-11T08:50:37;4.90;99.90
11055;DHT22;5580;50.106;8.702;2023-02-11T08:53:03;4.90;99.90
11055;DHT22;5580;50.106;8.702;2023-02-11T08:55:28;4.90;99.90
11055;DHT22;5580;50.106;8.702;2023-02-11T08:57:54;5.00;99.90
11055;DHT22;5580;50.106;8.702;2023-02-11T09:00:20;5.00;99.90
11055;DHT22;5580;50.106;8.702;2023-02-11T09:02:45;5.10;99.90
11055;DHT22;5580;50.106;8.702;2023-02-11T09:05:11;5.20;99.90
11055;DHT22;5580;50.106;8.702;2023-02-11T09:07:37;5.20;99.90
11055;DHT22;5580;50.106;8.702;2023-02-11T09:10:02;5.20;99.90
11055;DHT22;5580;50.106;8.702;2023-02-11T09:12:28;5.20;99.90
11055;DHT22;5580;50.106;8.702;2023-02-11T09:14:53;5.20;99.90
11055;DHT22;5580;50.106;8.702;2023-02-11T09:17:19;5.30;99.90
11055;DHT22;5580;50.106;8.702;2023-02-11T09:19:45;5.30;99.90
11055;DHT22;5580;50.106;8.702;2023-02-11T09:22:10;5.30;99.90
11055;DHT22;5580;50.106;8.702;2023-02-11T09:24:36;5.30;99.90
11055;DHT22;5580;50.106;8.702;2023-02-11T09:27:01;5.40;99.90
11055;DHT22;5580;50.106;8.702;2023-02-11T09:29:27;5.40;99.90
11055;DHT22;5580;50.106;8.702;2023-02-11T09:31:52;5.50;99.90
11055;DHT22;5580;50.106;8.702;2023-02-11T09:34:18;5.60;99.90
11055;DHT22;5580;50.106;8.702;2023-02-11T09:36:43;5.60;99.90
11055;DHT22;5580;50.106;8.702;2023-02-11T09:39:15;5.70;99.90
11055;DHT22;5580;50.106;8.702;2023-02-11T09:44:25;5.60;99.90
11055;DHT22;5580;50.106;8.702;2023-02-11T09:47:03;5.70;99.90
11055;DHT22;5580;50.106;8.702;2023-02-11T09:49:46;5.70;99.90
11055;DHT22;5580;50.106;8.702;2023-02-11T09:52:31;5.60;99.90
11055;DHT22;5580;50.106;8.702;2023-02-11T09:55:00;5.60;99.90
11055;DHT22;5580;50.106;8.702;2023-02-11T09:57:31;5.60;99.90
11055;DHT22;5580;50.106;8.702;2023-02-11T09:59:57;5.60;99.90
11055;DHT22;5580;50.106;8.702;2023-02-11T10:10:52;5.70;99.90
11055;DHT22;5580;50.106;8.702;2023-02-11T10:13:34;5.80;99.90
11055;DHT22;5580;50.106;8.702;2023-02-11T10:16:36;5.90;99.90
11055;DHT22;5580;50.106;8.702;2023-02-11T10:19:18;5.90;99.90
11055;DHT22;5580;50.106;8.702;2023-02-11T10:24:40;6.00;99.90
11055;DHT22;5580;50.106;8.702;2023-02-11T10:27:19;6.10;99.90
11055;DHT22;5580;50.106;8.702;2023-02-11T10:29:50;6.10;99.90
11055;DHT22;5580;50.106;8.702;2023-02-11T10:32:40;6.20;99.90
11055;DHT22;5580;50.106;8.702;2023-02-11T10:35:28;6.30;99.90
11055;DHT22;5580;50.106;8.702;2023-02-11T10:37:54;6.30;99.90
11055;DHT22;5580;50.106;8.702;2023-02-11T10:40:26;6.30;99.90
11055;DHT22;5580;50.106;8.702;2023-02-11T10:42:57;6.30;99.90
11055;DHT22;5580;50.106;8.702;2023-02-11T10:45:29;6.30;99.90
11055;DHT22;5580;50.106;8.702;2023-02-11T10:47:56;6.30;99.90
11055;DHT22;5580;50.106;8.702;2023-02-11T10:50:25;6.30;99.90
11055;DHT22;5580;50.106;8.702;2023-02-11T10:52:51;6.30;99.90
11055;DHT22;5580;50.106;8.702;2023-02-11T10:55:24;6.30;99.90
11055;DHT22;5580;50.106;8.702;2023-02-11T10:57:59;6.40;99.90
11055;DHT22;5580;50.106;8.702;2023-02-11T11:00:35;6.40;99.90
11055;DHT22;5580;50.106;8.702;2023-02-11T11:03:03;6.40;99.90
11055;DHT22;5580;50.106;8.702;2023-02-11T11:05:33;6.40;99.90
11055;DHT22;5580;50.106;8.702;2023-02-11T11:08:01;6.50;99.90
11055;DHT22;5580;50.106;8.702;2023-02-11T11:11:00;6.50;99.90
11055;DHT22;5580;50.106;8.702;2023-02-11T11:13:52;6.50;99.90
11055;DHT22;5580;50.106;8.702;2023-02-11T11:16:24;6.50;99.90
11055;DHT22;5580;50.106;8.702;2023-02-11T11:21:46;6.60;99.90
11055;DHT22;5580;50.106;8.702;2023-02-11T11:24:19;6.60;99.90
11055;DHT22;5580;50.106;8.702;2023-02-11T11:26:52;6.70;99.90
11055;DHT22;5580;50.106;8.702;2023-02-11T11:31:56;6.80;99.90
11055;DHT22;5580;50.106;8.702;2023-02-11T11:34:36;6.80;99.90
11055;DHT22;5580;50.106;8.702;2023-02-11T11:39:39;6.90;99.90
11055;DHT22;5580;50.106;8.702;2023-02-11T11:42:27;6.90;99.90
11055;DHT22;5580;50.106;8.702;2023-02-11T11:45:01;6.90;99.90
11055;DHT22;5580;50.106;8.702;2023-02-11T11:55:36;6.90;99.90
11055;DHT22;5580;50.106;8.702;2023-02-11T11:58:04;6.90;99.90
11055;DHT22;5580;50.106;8.702;2023-02-11T12:00:52;7.00;99.90
11055;DHT22;5580;50.106;8.702;2023-02-11T12:09:55;7.00;99.90
11055;DHT22;5580;50.106;8.702;2023-02-11T12:17:59;7.10;99.90
11055;DHT22;5580;50.106;8.702;2023-02-11T12:24:26;7.20;99.90
11055;DHT22;5580;50.106;8.702;2023-02-11T12:26:20;7.30;99.90
11055;DHT22;5580;50.106;8.702;2023-02-11T12:39:41;7.40;99.90
11055;DHT22;5580;50.106;8.702;2023-02-11T12:42:18;7.40;99.90
11055;DHT22;5580;50.106;8.702;2023-02-11T12:55:47;7.40;99.90
11055;DHT22;5580;50.106;8.702;2023-02-11T12:58:19;7.40;99.90
11055;DHT22;5580;50.106;8.702;2023-02-11T13:01:11;7.40;99.90
11055;DHT22;5580;50.106;8.702;2023-02-11T13:03:39;7.40;99.90
11055;DHT22;5580;50.106;8.702;2023-02-11T13:06:11;7.50;99.90
11055;DHT22;5580;50.106;8.702;2023-02-11T13:09:11;7.50;99.90
11055;DHT22;5580;50.106;8.702;2023-02-11T13:11:45;7.50;99.90
11055;DHT22;5580;50.106;8.702;2023-02-11T13:14:32;7.50;99.90
11055;DHT22;5580;50.106;8.702;2023-02-11T13:17:03;7.50;99.90
11055;DHT22;5580;50.106;8.702;2023-02-11T13:19:51;7.50;99.90
11055;DHT22;5580;50.106;8.702;2023-02-11T13:25:02;7.50;99.90
11055;DHT22;5580;50.106;8.702;2023-02-11T13:27:49;7.60;99.90
11055;DHT22;5580;50.106;8.702;2023-02-11T13:35:39;7.60;99.90
11055;DHT22;5580;50.106;8.702;2023-02-11T13:38:20;7.70;99.90
11055;DHT22;5580;50.106;8.702;2023-02-11T13:43:38;7.70;99.90
11055;DHT22;5580;50.106;8.702;2023-02-11T13:46:05;7.70;99.90
11055;DHT22;5580;50.106;8.702;2023-02-11T13:48:37;7.70;99.90
11055;DHT22;5580;50.106;8.702;2023-02-11T13:51:10;7.70;99.90
11055;DHT22;5580;50.106;8.702;2023-02-11T13:53:49;7.70;99.90
11055;DHT22;5580;50.106;8.702;2023-02-11T13:56:29;7.80;99.90
11055;DHT22;5580;50.106;8.702;2023-02-11T13:58:56;7.80;99.90
11055;DHT22;5580;50.106;8.702;2023-02-11T14:01:43;7.80;99.90
11055;DHT22;5580;50.106;8.702;2023-02-11T14:16:16;7.70;99.90
11055;DHT22;5580;50.106;8.702;2023-02-11T14:23:52;7.70;99.90
11055;DHT22;5580;50.106;8.702;2023-02-11T14:28:51;7.80;99.90
11055;DHT22;5580;50.106;8.702;2023-02-11T14:31:22;7.80;99.90
11055;DHT22;5580;50.106;8.702;2023-02-11T14:34:18;7.80;99.90
11055;DHT22;5580;50.106;8.702;2023-02-11T14:42:00;7.90;99.90
11055;DHT22;5580;50.106;8.702;2023-02-11T14:44:29;7.80;99.90
11055;DHT22;5580;50.106;8.702;2023-02-11T14:46:57;7.90;99.90
11055;DHT22;5580;50.106;8.702;2023-02-11T14:49:32;7.90;99.90
11055;DHT22;5580;50.106;8.702;2023-02-11T14:52:05;7.90;99.90
11055;DHT22;5580;50.106;8.702;2023-02-11T14:54:32;8.00;99.90
11055;DHT22;5580;50.106;8.702;2023-02-11T14:57:13;7.90;99.90
11055;DHT22;5580;50.106;8.702;2023-02-11T14:59:50;7.90;99.90
11055;DHT22;5580;50.106;8.702;2023-02-11T15:02:22;7.90;99.90
11055;DHT22;5580;50.106;8.702;2023-02-11T15:04:47;8.00;99.90
11055;DHT22;5580;50.106;8.702;2023-02-11T15:07:14;8.00;99.90
11055;DHT22;5580;50.106;8.702;2023-02-11T15:09:47;8.00;99.90
11055;DHT22;5580;50.106;8.702;2023-02-11T15:12:24;8.10;99.90
11055;DHT22;5580;50.106;8.702;2023-02-11T15:14:52;8.00;99.90
11055;DHT22;5580;50.106;8.702;2023-02-11T15:17:22;8.00;99.90
11055;DHT22;5580;50.106;8.702;2023-02-11T15:19:55;8.10;99.90
11055;DHT22;5580;50.106;8.702;2023-02-11T15:22:28;8.10;99.90
11055;DHT22;5580;50.106;8.702;2023-02-11T15:25:15;8.10;99.90
11055;DHT22;5580;50.106;8.702;2023-02-11T15:27:42;8.10;99.90
11055;DHT22;5580;50.106;8.702;2023-02-11T15:32:50;8.00;99.90
11055;DHT22;5580;50.106;8.702;2023-02-11T15:35:17;8.00;99.90
11055;DHT22;5580;50.106;8.702;2023-02-11T15:37:43;8.00;99.90
11055;DHT22;5580;50.106;8.702;2023-02-11T15:40:15;8.00;99.90
11055;DHT22;5580;50.106;8.702;2023-02-11T15:43:12;8.10;99.90
11055;DHT22;5580;50.106;8.702;2023-02-11T15:45:53;8.10;99.90
11055;DHT22;5580;50.106;8.702;2023-02-11T15:50:56;8.10;99.90
11055;DHT22;5580;50.106;8.702;2023-02-11T15:55:57;8.10;99.90
11055;DHT22;5580;50.106;8.702;2023-02-11T15:58:27;8.10;99.90
11055;DHT22;5580;50.106;8.702;2023-02-11T16:00:52;8.10;99.90
11055;DHT22;5580;50.106;8.702;2023-02-11T16:03:25;8.10;99.90
11055;DHT22;5580;50.106;8.702;2023-02-11T16:05:53;8.10;99.90
11055;DHT22;5580;50.106;8.702;2023-02-11T16:08:24;8.10;99.90
11055;DHT22;5580;50.106;8.702;2023-02-11T16:10:59;8.10;99.90
11055;DHT22;5580;50.106;8.702;2023-02-11T16:13:29;8.10;99.90
11055;DHT22;5580;50.106;8.702;2023-02-11T16:16:02;8.00;99.90
11055;DHT22;5580;50.106;8.702;2023-02-11T16:18:43;8.00;99.90
11055;DHT22;5580;50.106;8.702;2023-02-11T16:21:16;8.00;99.90
11055;DHT22;5580;50.106;8.702;2023-02-11T16:23:50;8.00;99.90
11055;DHT22;5580;50.106;8.702;2023-02-11T16:28:49;8.00;99.90
11055;DHT22;5580;50.106;8.702;2023-02-11T16:31:15;8.00;99.90
11055;DHT22;5580;50.106;8.702;2023-02-11T16:33:41;8.10;99.90
11055;DHT22;5580;50.106;8.702;2023-02-11T16:36:14;8.10;99.90
11055;DHT22;5580;50.106;8.702;2023-02-11T16:38:43;8.10;99.90
11055;DHT22;5580;50.106;8.702;2023-02-11T16:41:09;8.10;99.90
11055;DHT22;5580;50.106;8.702;2023-02-11T16:43:37;8.10;99.90
11055;DHT22;5580;50.106;8.702;2023-02-11T16:46:03;8.00;99.90
11055;DHT22;5580;50.106;8.702;2023-02-11T16:48:29;8.00;99.90
11055;DHT22;5580;50.106;8.702;2023-02-11T16:50:55;8.00;99.90
11055;DHT22;5580;50.106;8.702;2023-02-11T16:53:22;8.00;99.90
11055;DHT22;5580;50.106;8.702;2023-02-11T16:55:49;8.00;99.90
11055;DHT22;5580;50.106;8.702;2023-02-11T16:58:15;7.90;99.90
11055;DHT22;5580;50.106;8.702;2023-02-11T17:00:40;8.00;99.90
11055;DHT22;5580;50.106;8.702;2023-02-11T17:03:14;8.00;99.90
11055;DHT22;5580;50.106;8.702;2023-02-11T17:05:40;8.00;99.90
11055;DHT22;5580;50.106;8.702;2023-02-11T17:08:06;8.00;99.90
11055;DHT22;5580;50.106;8.702;2023-02-11T17:10:32;7.90;99.90
11055;DHT22;5580;50.106;8.702;2023-02-11T17:12:57;7.90;99.90
11055;DHT22;5580;50.106;8.702;2023-02-11T17:15:23;7.90;99.90
11055;DHT22;5580;50.106;8.702;2023-02-11T17:17:48;7.90;99.90
11055;DHT22;5580;50.106;8.702;2023-02-11T17:20:14;7.90;99.90
11055;DHT22;5580;50.106;8.702;2023-02-11T17:22:40;7.90;99.90
11055;DHT22;5580;50.106;8.702;2023-02-11T17:25:06;8.00;99.90
11055;DHT22;5580;50.106;8.702;2023-02-11T17:27:32;7.90;99.90
11055;DHT22;5580;50.106;8.702;2023-02-11T17:29:58;8.00;99.90
11055;DHT22;5580;50.106;8.702;2023-02-11T17:32:27;8.00;99.90
11055;DHT22;5580;50.106;8.702;2023-02-11T17:34:53;8.00;99.90
11055;DHT22;5580;50.106;8.702;2023-02-11T17:37:18;8.00;99.90
11055;DHT22;5580;50.106;8.702;2023-02-11T17:39:44;7.90;99.90
11055;DHT22;5580;50.106;8.702;2023-02-11T17:42:10;7.90;99.90
11055;DHT22;5580;50.106;8.702;2023-02-11T17:44:36;7.90;99.90
11055;DHT22;5580;50.106;8.702;2023-02-11T17:47:02;7.90;99.90
11055;DHT22;5580;50.106;8.702;2023-02-11T17:49:28;7.90;99.90
11055;DHT22;5580;50.106;8.702;2023-02-11T17:51:53;7.90;99.90
11055;DHT22;5580;50.106;8.702;2023-02-11T17:54:20;7.90;99.90
11055;DHT22;5580;50.106;8.702;2023-02-11T17:56:45;8.00;99.90
11055;DHT22;5580;50.106;8.702;2023-02-11T17:59:13;8.00;99.90
11055;DHT22;5580;50.106;8.702;2023-02-11T18:01:40;8.00;99.90
11055;DHT22;5580;50.106;8.702;2023-02-11T18:04:09;8.00;99.90
11055;DHT22;5580;50.106;8.702;2023-02-11T18:06:35;8.00;99.90
11055;DHT22;5580;50.106;8.702;2023-02-11T18:09:01;8.00;99.90
11055;DHT22;5580;50.106;8.702;2023-02-11T18:11:29;8.00;99.90
11055;DHT22;5580;50.106;8.702;2023-02-11T18:13:57;8.00;99.90
11055;DHT22;5580;50.106;8.702;2023-02-11T18:16:23;8.00;99.90
11055;DHT22;5580;50.106;8.702;2023-02-11T18:18:52;8.00;99.90
11055;DHT22;5580;50.106;8.702;2023-02-11T18:21:19;8.00;99.90
11055;DHT22;5580;50.106;8.702;2023-02-11T18:23:45;8.00;99.90
11055;DHT22;5580;50.106;8.702;2023-02-11T18:26:13;8.00;99.90
11055;DHT22;5580;50.106;8.702;2023-02-11T18:28:39;8.00;99.90
11055;DHT22;5580;50.106;8.702;2023-02-11T18:31:06;7.90;99.90
11055;DHT22;5580;50.106;8.702;2023-02-11T18:33:33;8.00;99.90
11055;DHT22;5580;50.106;8.702;2023-02-11T18:36:04;8.00;99.90
11055;DHT22;5580;50.106;8.702;2023-02-11T18:38:30;8.00;99.90
11055;DHT22;5580;50.106;8.702;2023-02-11T18:40:56;8.00;99.90
11055;DHT22;5580;50.106;8.702;2023-02-11T18:43:22;8.00;99.90